createdAt,value
2023-04-05T00:02:44.060Z,4.23
2023-04-05T00:06:46.832Z,4.18
2023-04-05T00:10:49.735Z,4.14
2023-04-05T00:14:52.447Z,4.08
2023-04-05T00:18:58.362Z,4.02
2023-04-05T00:23:01.129Z,3.97
2023-04-05T00:27:03.947Z,3.90
2023-04-05T00:31:07.076Z,3.84
2023-04-05T00:35:11.471Z,3.82
2023-04-05T00:39:14.510Z,3.78
2023-04-05T00:43:17.219Z,3.73
2023-04-05T00:47:20.012Z,3.68
2023-04-05T00:51:26.607Z,3.63
2023-04-05T00:55:29.882Z,3.58
2023-04-05T00:59:32.671Z,3.52
2023-04-05T01:03:37.094Z,3.46
2023-04-05T01:07:47.542Z,3.42
2023-04-05T01:11:52.230Z,3.34
2023-04-05T01:15:55.106Z,3.29
2023-04-05T01:20:00.137Z,3.26
2023-04-05T01:24:21.109Z,3.18
2023-04-05T01:28:41.816Z,3.11
2023-04-05T01:32:56.314Z,3.08
2023-04-05T01:37:04.731Z,3.06
2023-04-05T01:41:07.752Z,3.03
2023-04-05T01:45:11.080Z,2.99
2023-04-05T01:49:15.624Z,2.94
2023-04-05T01:53:18.705Z,2.90
2023-04-05T01:57:21.515Z,2.85
2023-04-05T02:01:24.734Z,2.80
2023-04-05T02:05:29.117Z,2.74
2023-04-05T02:09:31.825Z,2.70
2023-04-05T02:13:34.601Z,2.64
2023-04-05T02:17:40.277Z,2.61
2023-04-05T02:21:46.158Z,2.56
2023-04-05T02:25:48.961Z,2.51
2023-04-05T02:29:55.775Z,2.47
2023-04-05T02:34:00.993Z,2.43
2023-04-05T02:38:05.624Z,2.39
2023-04-05T02:42:10.124Z,2.34
2023-04-05T02:46:12.997Z,2.30
2023-04-05T02:50:20.500Z,2.27
2023-04-05T02:54:25.083Z,2.26
2023-04-05T02:58:33.998Z,2.22
2023-04-05T03:02:39.828Z,2.18
2023-04-05T03:06:51.007Z,2.13
2023-04-05T03:10:57.369Z,2.10
2023-04-05T03:15:00.247Z,2.07
2023-04-05T03:19:10.185Z,2.03
2023-04-05T03:23:17.287Z,2.01
2023-04-05T03:27:23.029Z,1.96
2023-04-05T03:31:52.963Z,1.91
2023-04-05T03:35:58.890Z,1.89
2023-04-05T03:40:05.212Z,1.86
2023-04-05T03:44:10.013Z,1.81
2023-04-05T03:48:12.941Z,1.78
2023-04-05T03:52:15.855Z,1.74
2023-04-05T03:56:21.368Z,1.71
2023-04-05T04:00:27.401Z,1.66
2023-04-05T04:04:56.388Z,1.63
2023-04-05T04:08:59.166Z,1.58
2023-04-05T04:13:02.071Z,1.56
2023-04-05T04:17:09.836Z,1.53
2023-04-05T04:21:32.530Z,1.51
2023-04-05T04:25:54.945Z,1.46
2023-04-05T04:30:25.602Z,1.44
2023-04-05T04:34:46.637Z,1.40
2023-04-05T04:39:07.970Z,1.35
2023-04-05T04:43:27.583Z,1.33
2023-04-05T04:47:54.822Z,1.30
2023-04-05T04:52:10.533Z,1.26
2023-04-05T04:56:15.301Z,1.26
2023-04-05T05:00:18.898Z,1.23
2023-04-05T05:04:22.933Z,1.21
2023-04-05T05:08:27.265Z,1.20
2023-04-05T05:12:31.347Z,1.17
2023-04-05T05:16:34.526Z,1.17
2023-04-05T05:20:37.468Z,1.17
2023-04-05T05:24:42.566Z,1.18
2023-04-05T05:28:45.978Z,1.23
2023-04-05T05:32:48.861Z,1.29
2023-04-05T05:36:53.542Z,1.32
2023-04-05T05:40:58.697Z,1.36
2023-04-05T05:45:04.421Z,1.40
2023-04-05T05:49:07.244Z,1.43
2023-04-05T05:53:10.010Z,1.45
2023-04-05T05:57:14.260Z,1.47
2023-04-05T06:01:17.070Z,1.51
2023-04-05T06:05:19.870Z,1.56
2023-04-05T06:09:23.211Z,1.60
2023-04-05T06:13:27.483Z,1.66
2023-04-05T06:17:30.375Z,1.66
2023-04-05T06:21:33.191Z,1.73
2023-04-05T06:25:36.357Z,1.81
2023-04-05T06:29:40.491Z,1.87
2023-04-05T06:33:43.461Z,1.94
2023-04-05T06:37:46.210Z,2.01
2023-04-05T06:41:49.065Z,2.05
2023-04-05T06:45:53.221Z,2.15
2023-04-05T06:49:56.116Z,2.28
2023-04-05T06:53:59.077Z,2.42
2023-04-05T06:58:01.830Z,2.58
2023-04-05T07:02:06.030Z,2.72
2023-04-05T07:06:09.751Z,2.89
2023-04-05T07:10:12.794Z,3.07
2023-04-05T07:14:15.995Z,3.33
2023-04-05T07:18:20.480Z,3.76
2023-04-05T07:22:23.228Z,4.25
2023-04-05T07:26:26.993Z,4.82
2023-04-05T07:30:30.121Z,5.40
2023-04-05T07:34:34.314Z,6.04
2023-04-05T07:38:37.143Z,6.56
2023-04-05T07:42:40.860Z,7.07
2023-04-05T07:46:46.897Z,7.58
2023-04-05T07:50:53.013Z,8.07
2023-04-05T07:54:56.198Z,8.51
2023-04-05T07:58:59.730Z,8.81
2023-04-05T08:03:02.947Z,9.22
2023-04-05T08:07:07.119Z,9.66
2023-04-05T08:11:09.977Z,9.95
2023-04-05T08:15:12.660Z,10.24
2023-04-05T08:19:21.664Z,10.48
2023-04-05T08:23:27.084Z,10.70
2023-04-05T08:27:29.844Z,11.00
2023-04-05T08:31:33.914Z,11.10
2023-04-05T08:35:38.250Z,11.29
2023-04-05T08:39:42.452Z,11.45
2023-04-05T08:43:54.611Z,11.59
2023-04-05T08:47:57.542Z,11.69
2023-04-05T08:52:02.055Z,11.90
2023-04-05T08:56:07.991Z,12.28
2023-04-05T09:00:12.232Z,12.40
2023-04-05T09:04:18.308Z,12.39
2023-04-05T09:08:22.333Z,12.47
2023-04-05T09:12:28.088Z,12.43
2023-04-05T09:16:31.217Z,12.55
2023-04-05T09:20:34.333Z,12.71
2023-04-05T09:24:40.854Z,12.94
2023-04-05T09:28:45.005Z,13.17
2023-04-05T09:32:48.499Z,13.61
2023-04-05T09:36:51.311Z,13.74
2023-04-05T09:40:54.031Z,13.91
2023-04-05T09:45:08.593Z,14.11
2023-04-05T09:49:33.798Z,14.17
2023-04-05T09:53:36.523Z,14.23
2023-04-05T09:57:40.432Z,14.41
2023-04-05T10:01:45.794Z,14.59
2023-04-05T10:05:56.066Z,14.83
2023-04-05T10:09:59.077Z,14.79
2023-04-05T10:14:03.866Z,14.81
2023-04-05T10:18:14.542Z,14.95
2023-04-05T10:22:24.836Z,15.05
2023-04-05T10:26:37.521Z,14.66
2023-04-05T10:30:44.159Z,15.01
2023-04-05T10:34:58.041Z,15.21
2023-04-05T10:39:04.419Z,15.03
2023-04-05T10:43:16.543Z,15.32
2023-04-05T10:47:20.862Z,15.51
2023-04-05T10:51:27.659Z,15.52
2023-04-05T10:55:31.458Z,15.52
2023-04-05T10:59:35.458Z,15.43
2023-04-05T11:03:48.921Z,15.59
2023-04-05T11:07:56.402Z,15.60
2023-04-05T11:11:59.280Z,15.65
2023-04-05T11:16:11.377Z,15.84
2023-04-05T11:20:14.200Z,15.87
2023-04-05T11:24:19.588Z,15.94
2023-04-05T11:28:25.092Z,15.52
2023-04-05T11:32:40.156Z,15.09
2023-04-05T11:36:46.045Z,14.83
2023-04-05T11:40:50.404Z,14.75
2023-04-05T11:44:54.572Z,14.92
2023-04-05T11:48:58.105Z,15.06
2023-04-05T11:53:12.285Z,15.26
2023-04-05T11:57:20.089Z,15.41
2023-04-05T12:01:22.820Z,15.23
2023-04-05T12:05:25.627Z,15.33
2023-04-05T12:09:28.428Z,15.43
2023-04-05T12:13:35.344Z,15.75
2023-04-05T12:17:42.421Z,15.87
2023-04-05T12:21:45.792Z,16.13
2023-04-05T12:25:49.541Z,16.24
2023-04-05T12:30:11.792Z,16.30
2023-04-05T12:34:15.894Z,16.19
2023-04-05T12:38:18.818Z,16.41
2023-04-05T12:42:23.372Z,16.41
2023-04-05T12:46:40.517Z,16.44
2023-04-05T12:50:44.861Z,16.42
2023-04-05T12:54:54.886Z,16.25
2023-04-05T12:58:57.719Z,16.08
2023-04-05T13:03:02.046Z,15.94
2023-04-05T13:07:04.890Z,16.23
2023-04-05T13:11:07.724Z,16.32
2023-04-05T13:15:11.160Z,16.29
2023-04-05T13:19:15.413Z,15.51
2023-04-05T13:23:18.177Z,15.06
2023-04-05T13:27:21.681Z,15.10
2023-04-05T13:31:24.581Z,15.41
2023-04-05T13:35:28.794Z,15.67
2023-04-05T13:39:31.552Z,15.45
2023-04-05T13:43:34.270Z,15.51
2023-04-05T13:47:37.243Z,15.57
2023-04-05T13:51:41.871Z,15.53
2023-04-05T13:55:44.710Z,15.70
2023-04-05T13:59:47.615Z,15.75
2023-04-05T14:03:50.765Z,15.55
2023-04-05T14:07:54.987Z,15.19
2023-04-05T14:12:02.669Z,15.13
2023-04-05T14:16:06.093Z,15.20
2023-04-05T14:20:09.545Z,14.73
2023-04-05T14:24:13.880Z,14.68
2023-04-05T14:28:16.670Z,14.60
2023-04-05T14:32:19.571Z,14.62
2023-04-05T14:36:22.524Z,14.75
2023-04-05T14:40:26.821Z,14.76
2023-04-05T14:44:29.679Z,14.68
2023-04-05T14:48:33.977Z,14.60
2023-04-05T14:52:37.357Z,14.55
2023-04-05T14:56:41.541Z,14.52
2023-04-05T15:00:44.575Z,14.37
2023-04-05T15:04:47.340Z,14.38
2023-04-05T15:08:50.113Z,14.33
2023-04-05T15:12:54.351Z,14.13
2023-04-05T15:16:57.307Z,13.93
2023-04-05T15:21:01.062Z,13.86
2023-04-05T15:25:03.970Z,13.67
2023-04-05T15:29:08.207Z,13.62
2023-04-05T15:33:11.113Z,13.44
2023-04-05T15:37:14.046Z,13.26
2023-04-05T15:41:16.860Z,13.03
2023-04-05T15:45:21.128Z,12.96
2023-04-05T15:49:23.949Z,12.98
2023-04-05T15:53:27.863Z,13.11
2023-04-05T15:57:30.738Z,13.23
2023-04-05T16:01:37.945Z,13.16
2023-04-05T16:05:52.815Z,12.96
2023-04-05T16:10:12.682Z,12.98
2023-04-05T16:14:37.218Z,13.00
2023-04-05T16:19:27.256Z,12.97
2023-04-05T16:24:13.882Z,12.91
2023-04-05T16:28:43.887Z,12.89
2023-04-05T16:33:22.126Z,12.65
2023-04-05T16:38:09.021Z,12.58
2023-04-05T16:42:58.345Z,12.48
2023-04-05T16:47:48.658Z,12.21
2023-04-05T16:52:35.782Z,12.08
2023-04-05T16:57:17.488Z,12.07
2023-04-05T17:01:47.031Z,12.01
2023-04-05T17:05:56.596Z,11.80
2023-04-05T17:10:00.701Z,11.75
2023-04-05T17:14:05.557Z,11.64
2023-04-05T17:18:09.991Z,11.51
2023-04-05T17:22:17.661Z,11.17
2023-04-05T17:26:23.118Z,11.08
2023-04-05T17:30:27.716Z,10.98
2023-04-05T17:34:34.610Z,10.94
2023-04-05T17:38:37.603Z,10.86
2023-04-05T17:42:40.693Z,10.76
2023-04-05T17:46:51.163Z,10.68
2023-04-05T17:50:59.121Z,10.60
2023-04-05T17:55:02.674Z,10.51
2023-04-05T17:59:06.660Z,10.41
2023-04-05T18:03:10.094Z,10.27
2023-04-05T18:07:14.618Z,10.24
2023-04-05T18:11:17.626Z,10.23
2023-04-05T18:15:20.728Z,10.15
2023-04-05T18:19:23.642Z,10.09
2023-04-05T18:23:28.446Z,9.95
2023-04-05T18:27:32.505Z,9.83
2023-04-05T18:31:36.935Z,9.76
2023-04-05T18:35:49.706Z,9.68
2023-04-05T18:39:53.997Z,9.60
2023-04-05T18:43:59.242Z,9.46
2023-04-05T18:48:03.320Z,9.26
2023-04-05T18:52:06.244Z,9.01
2023-04-05T18:56:10.967Z,8.87
2023-04-05T19:00:16.865Z,8.77
2023-04-05T19:04:20.072Z,8.67
2023-04-05T19:08:23.193Z,8.56
2023-04-05T19:12:27.674Z,8.47
2023-04-05T19:16:31.028Z,8.36
2023-04-05T19:20:34.319Z,8.21
2023-04-05T19:24:40.758Z,8.04
2023-04-05T19:28:47.183Z,7.84
2023-04-05T19:32:54.495Z,7.66
2023-04-05T19:36:59.837Z,7.58
2023-04-05T19:41:02.785Z,7.51
2023-04-05T19:45:10.794Z,7.49
2023-04-05T19:49:39.009Z,7.43
2023-04-05T19:53:51.625Z,7.34
2023-04-05T19:57:54.940Z,7.24
2023-04-05T20:02:00.401Z,7.10
2023-04-05T20:06:07.076Z,7.05
2023-04-05T20:10:16.426Z,6.96
2023-04-05T20:14:28.033Z,6.86
2023-04-05T20:18:32.559Z,6.79
2023-04-05T20:22:35.908Z,6.70
2023-04-05T20:26:39.490Z,6.60
2023-04-05T20:30:42.981Z,6.49
2023-04-05T20:34:49.253Z,6.42
2023-04-05T20:38:52.338Z,6.30
2023-04-05T20:42:56.452Z,6.15
2023-04-05T20:47:00.541Z,6.02
2023-04-05T20:51:07.643Z,5.93
2023-04-05T20:55:11.079Z,5.87
2023-04-05T20:59:14.657Z,5.83
2023-04-05T21:03:17.933Z,5.80
2023-04-05T21:07:22.312Z,5.79
2023-04-05T21:11:27.094Z,5.78
2023-04-05T21:15:32.125Z,5.75
2023-04-05T21:19:36.141Z,5.68
2023-04-05T21:23:49.116Z,5.61
2023-04-05T21:27:53.101Z,5.50
2023-04-05T21:31:56.279Z,5.44
2023-04-05T21:35:59.527Z,5.38
2023-04-05T21:40:04.530Z,5.32
2023-04-05T21:44:07.605Z,5.27
2023-04-05T21:48:10.607Z,5.24
2023-04-05T21:52:13.691Z,5.19
2023-04-05T21:56:19.009Z,5.13
2023-04-05T22:00:22.418Z,5.07
2023-04-05T22:04:26.518Z,5.02
2023-04-05T22:08:29.756Z,4.99
2023-04-05T22:12:35.597Z,4.92
2023-04-05T22:16:38.713Z,4.86
2023-04-05T22:20:42.577Z,4.81
2023-04-05T22:24:46.256Z,4.75
2023-04-05T22:28:51.030Z,4.71
2023-04-05T22:32:54.976Z,4.66
2023-04-05T22:36:57.855Z,4.59
2023-04-05T22:41:06.505Z,4.54
2023-04-05T22:45:16.679Z,4.50
2023-04-05T22:49:28.092Z,4.44
2023-04-05T22:53:44.765Z,4.37
2023-04-05T22:58:02.830Z,4.31
2023-04-05T23:03:01.676Z,4.26
2023-04-05T23:23:49.971Z,3.75
2023-04-05T23:28:30.560Z,3.69
2023-04-05T23:49:15.943Z,3.41
2023-04-05T23:53:56.355Z,3.36
2023-04-05T23:58:31.853Z,3.33
